sensor_id;sensor_type;location;lat;lon;timestamp;temperature;humidity
63445;DHT22;49573;47.682;9.170;2023-04-30T00:01:46;13.20;71.90
63445;DHT22;49573;47.682;9.170;2023-04-30T00:04:32;13.20;71.80
63445;DHT22;49573;47.682;9.170;2023-04-30T00:07:18;13.10;72.30
63445;DHT22;49573;47.682;9.170;2023-04-30T00:10:05;13.00;73.50
63445;DHT22;49573;47.682;9.170;2023-04-30T00:12:51;13.00;73.70
63445;DHT22;49573;47.682;9.170;2023-04-30T00:15:39;12.80;73.90
63445;DHT22;49573;47.682;9.170;2023-04-30T00:18:26;12.80;74.20
63445;DHT22;49573;47.682;9.170;2023-04-30T00:21:12;12.70;74.70
63445;DHT22;49573;47.682;9.170;2023-04-30T00:23:58;12.60;75.00
63445;DHT22;49573;47.682;9.170;2023-04-30T00:26:45;12.60;74.80
63445;DHT22;49573;47.682;9.170;2023-04-30T00:29:31;12.50;75.00
63445;DHT22;49573;47.682;9.170;2023-04-30T00:32:19;12.50;75.10
63445;DHT22;49573;47.682;9.170;2023-04-30T00:35:05;12.40;75.50
63445;DHT22;49573;47.682;9.170;2023-04-30T00:37:51;12.30;75.70
63445;DHT22;49573;47.682;9.170;2023-04-30T00:40:39;12.30;76.00
63445;DHT22;49573;47.682;9.170;2023-04-30T00:43:26;12.20;76.00
63445;DHT22;49573;47.682;9.170;2023-04-30T00:46:12;12.20;76.00
63445;DHT22;49573;47.682;9.170;2023-04-30T00:48:59;12.10;75.90
63445;DHT22;49573;47.682;9.170;2023-04-30T00:51:50;12.10;76.40
63445;DHT22;49573;47.682;9.170;2023-04-30T00:54:36;12.00;76.40
63445;DHT22;49573;47.682;9.170;2023-04-30T00:57:24;11.90;76.60
63445;DHT22;49573;47.682;9.170;2023-04-30T01:00:12;11.80;76.70
63445;DHT22;49573;47.682;9.170;2023-04-30T01:02:58;11.80;77.00
63445;DHT22;49573;47.682;9.170;2023-04-30T01:05:46;11.70;77.10
63445;DHT22;49573;47.682;9.170;2023-04-30T01:08:32;11.70;77.20
63445;DHT22;49573;47.682;9.170;2023-04-30T01:11:27;11.70;77.40
63445;DHT22;49573;47.682;9.170;2023-04-30T01:14:20;11.60;77.50
63445;DHT22;49573;47.682;9.170;2023-04-30T01:17:12;11.50;77.60
63445;DHT22;49573;47.682;9.170;2023-04-30T01:20:00;11.50;77.50
63445;DHT22;49573;47.682;9.170;2023-04-30T01:22:51;11.40;77.70
63445;DHT22;49573;47.682;9.170;2023-04-30T01:25:52;11.40;77.80
63445;DHT22;49573;47.682;9.170;2023-04-30T01:28:42;11.40;77.90
63445;DHT22;49573;47.682;9.170;2023-04-30T01:31:29;11.30;78.20
63445;DHT22;49573;47.682;9.170;2023-04-30T01:34:16;11.30;78.20
63445;DHT22;49573;47.682;9.170;2023-04-30T01:37:11;11.30;78.10
63445;DHT22;49573;47.682;9.170;2023-04-30T01:40:11;11.20;78.20
63445;DHT22;49573;47.682;9.170;2023-04-30T01:43:09;11.20;78.20
63445;DHT22;49573;47.682;9.170;2023-04-30T01:46:05;11.20;78.60
63445;DHT22;49573;47.682;9.170;2023-04-30T01:48:58;11.00;78.80
63445;DHT22;49573;47.682;9.170;2023-04-30T01:51:49;11.00;79.20
63445;DHT22;49573;47.682;9.170;2023-04-30T01:54:45;11.00;79.00
63445;DHT22;49573;47.682;9.170;2023-04-30T01:57:37;10.90;79.00
63445;DHT22;49573;47.682;9.170;2023-04-30T02:00:24;10.90;79.40
63445;DHT22;49573;47.682;9.170;2023-04-30T02:03:11;10.90;79.20
63445;DHT22;49573;47.682;9.170;2023-04-30T02:05:57;10.90;79.40
63445;DHT22;49573;47.682;9.170;2023-04-30T02:08:44;10.80;79.60
63445;DHT22;49573;47.682;9.170;2023-04-30T02:11:30;10.80;79.60
63445;DHT22;49573;47.682;9.170;2023-04-30T02:14:16;10.80;79.90
63445;DHT22;49573;47.682;9.170;2023-04-30T02:17:02;10.80;80.30
63445;DHT22;49573;47.682;9.170;2023-04-30T02:19:50;10.80;80.40
63445;DHT22;49573;47.682;9.170;2023-04-30T02:22:36;10.90;80.00
63445;DHT22;49573;47.682;9.170;2023-04-30T02:25:22;10.90;80.30
63445;DHT22;49573;47.682;9.170;2023-04-30T02:28:08;11.00;79.90
63445;DHT22;49573;47.682;9.170;2023-04-30T02:30:54;11.10;79.60
63445;DHT22;49573;47.682;9.170;2023-04-30T02:33:40;11.20;79.50
63445;DHT22;49573;47.682;9.170;2023-04-30T02:36:27;11.30;79.40
63445;DHT22;49573;47.682;9.170;2023-04-30T02:39:13;11.30;79.00
63445;DHT22;49573;47.682;9.170;2023-04-30T02:41:59;11.30;78.70
63445;DHT22;49573;47.682;9.170;2023-04-30T02:44:45;11.40;78.50
63445;DHT22;49573;47.682;9.170;2023-04-30T02:47:31;11.40;78.40
63445;DHT22;49573;47.682;9.170;2023-04-30T02:50:17;11.50;78.60
63445;DHT22;49573;47.682;9.170;2023-04-30T02:53:05;11.50;78.10
63445;DHT22;49573;47.682;9.170;2023-04-30T02:55:51;11.50;77.80
63445;DHT22;49573;47.682;9.170;2023-04-30T02:58:37;11.60;77.70
63445;DHT22;49573;47.682;9.170;2023-04-30T03:01:23;11.60;77.40
63445;DHT22;49573;47.682;9.170;2023-04-30T03:04:09;11.60;78.00
63445;DHT22;49573;47.682;9.170;2023-04-30T03:06:55;11.70;77.70
63445;DHT22;49573;47.682;9.170;2023-04-30T03:09:43;11.70;77.30
63445;DHT22;49573;47.682;9.170;2023-04-30T03:12:29;11.70;77.30
63445;DHT22;49573;47.682;9.170;2023-04-30T03:15:15;11.70;77.20
63445;DHT22;49573;47.682;9.170;2023-04-30T03:18:01;11.70;77.30
63445;DHT22;49573;47.682;9.170;2023-04-30T03:20:47;11.70;77.40
63445;DHT22;49573;47.682;9.170;2023-04-30T03:23:33;11.70;77.00
63445;DHT22;49573;47.682;9.170;2023-04-30T03:26:20;11.80;76.90
63445;DHT22;49573;47.682;9.170;2023-04-30T03:29:06;11.70;77.20
63445;DHT22;49573;47.682;9.170;2023-04-30T03:31:52;11.70;76.80
63445;DHT22;49573;47.682;9.170;2023-04-30T03:34:38;11.70;76.90
63445;DHT22;49573;47.682;9.170;2023-04-30T03:37:24;11.70;76.80
63445;DHT22;49573;47.682;9.170;2023-04-30T03:40:11;11.80;76.30
63445;DHT22;49573;47.682;9.170;2023-04-30T03:42:59;11.70;76.40
63445;DHT22;49573;47.682;9.170;2023-04-30T03:45:45;11.80;76.60
63445;DHT22;49573;47.682;9.170;2023-04-30T03:48:31;11.80;76.40
63445;DHT22;49573;47.682;9.170;2023-04-30T03:51:17;11.80;76.40
63445;DHT22;49573;47.682;9.170;2023-04-30T03:54:04;11.70;76.70
63445;DHT22;49573;47.682;9.170;2023-04-30T03:56:51;11.70;76.50
63445;DHT22;49573;47.682;9.170;2023-04-30T03:59:38;11.70;76.40
63445;DHT22;49573;47.682;9.170;2023-04-30T04:02:24;11.70;76.30
63445;DHT22;49573;47.682;9.170;2023-04-30T04:05:10;11.80;76.50
63445;DHT22;49573;47.682;9.170;2023-04-30T04:07:56;11.80;76.40
63445;DHT22;49573;47.682;9.170;2023-04-30T04:10:43;11.70;76.50
63445;DHT22;49573;47.682;9.170;2023-04-30T04:13:29;11.70;76.80
63445;DHT22;49573;47.682;9.170;2023-04-30T04:16:16;11.70;76.30
63445;DHT22;49573;47.682;9.170;2023-04-30T04:19:02;11.70;76.50
63445;DHT22;49573;47.682;9.170;2023-04-30T04:21:49;11.70;76.60
63445;DHT22;49573;47.682;9.170;2023-04-30T04:24:35;11.70;76.50
63445;DHT22;49573;47.682;9.170;2023-04-30T04:27:23;11.70;76.50
63445;DHT22;49573;47.682;9.170;2023-04-30T04:30:10;11.70;76.90
63445;DHT22;49573;47.682;9.170;2023-04-30T04:32:58;11.70;76.80
63445;DHT22;49573;47.682;9.170;2023-04-30T04:35:45;11.70;76.90
63445;DHT22;49573;47.682;9.170;2023-04-30T04:38:31;11.70;76.60
63445;DHT22;49573;47.682;9.170;2023-04-30T04:41:17;11.70;77.00
63445;DHT22;49573;47.682;9.170;2023-04-30T04:44:03;11.70;77.00
63445;DHT22;49573;47.682;9.170;2023-04-30T04:46:49;11.70;76.90
63445;DHT22;49573;47.682;9.170;2023-04-30T04:49:40;11.70;76.90
63445;DHT22;49573;47.682;9.170;2023-04-30T04:52:26;11.70;76.70
63445;DHT22;49573;47.682;9.170;2023-04-30T04:55:12;11.70;76.90
63445;DHT22;49573;47.682;9.170;2023-04-30T04:57:58;11.70;76.90
63445;DHT22;49573;47.682;9.170;2023-04-30T05:00:44;11.70;77.00
63445;DHT22;49573;47.682;9.170;2023-04-30T05:03:31;11.70;77.00
63445;DHT22;49573;47.682;9.170;2023-04-30T05:06:18;11.70;76.60
63445;DHT22;49573;47.682;9.170;2023-04-30T05:09:04;11.70;77.00
63445;DHT22;49573;47.682;9.170;2023-04-30T05:11:53;11.80;77.10
63445;DHT22;49573;47.682;9.170;2023-04-30T05:14:39;11.80;76.90
63445;DHT22;49573;47.682;9.170;2023-04-30T05:17:25;11.80;76.60
63445;DHT22;49573;47.682;9.170;2023-04-30T05:20:12;11.80;76.80
63445;DHT22;49573;47.682;9.170;2023-04-30T05:22:59;11.80;76.60
63445;DHT22;49573;47.682;9.170;2023-04-30T05:25:50;11.80;76.50
63445;DHT22;49573;47.682;9.170;2023-04-30T05:28:37;11.80;76.70
63445;DHT22;49573;47.682;9.170;2023-04-30T05:31:23;11.80;76.50
63445;DHT22;49573;47.682;9.170;2023-04-30T05:34:09;11.80;76.40
63445;DHT22;49573;47.682;9.170;2023-04-30T05:36:55;11.80;76.40
63445;DHT22;49573;47.682;9.170;2023-04-30T05:39:42;11.90;76.70
63445;DHT22;49573;47.682;9.170;2023-04-30T05:42:28;11.80;76.50
63445;DHT22;49573;47.682;9.170;2023-04-30T05:45:15;11.90;76.60
63445;DHT22;49573;47.682;9.170;2023-04-30T05:48:02;12.00;76.60
63445;DHT22;49573;47.682;9.170;2023-04-30T05:50:48;12.00;76.20
63445;DHT22;49573;47.682;9.170;2023-04-30T05:53:34;12.00;76.30
63445;DHT22;49573;47.682;9.170;2023-04-30T05:56:21;12.00;76.50
63445;DHT22;49573;47.682;9.170;2023-04-30T05:59:08;12.10;76.40
63445;DHT22;49573;47.682;9.170;2023-04-30T06:01:54;12.20;75.30
63445;DHT22;49573;47.682;9.170;2023-04-30T06:04:40;12.20;75.60
63445;DHT22;49573;47.682;9.170;2023-04-30T06:07:27;12.20;75.40
63445;DHT22;49573;47.682;9.170;2023-04-30T06:10:13;12.20;75.20
63445;DHT22;49573;47.682;9.170;2023-04-30T06:13:00;12.20;75.50
63445;DHT22;49573;47.682;9.170;2023-04-30T06:15:46;12.30;75.50
63445;DHT22;49573;47.682;9.170;2023-04-30T06:18:33;12.30;75.20
63445;DHT22;49573;47.682;9.170;2023-04-30T06:21:19;12.30;75.10
63445;DHT22;49573;47.682;9.170;2023-04-30T06:24:05;12.30;75.00
63445;DHT22;49573;47.682;9.170;2023-04-30T06:26:51;12.30;75.30
63445;DHT22;49573;47.682;9.170;2023-04-30T06:29:39;12.50;74.90
63445;DHT22;49573;47.682;9.170;2023-04-30T06:32:25;12.50;74.60
63445;DHT22;49573;47.682;9.170;2023-04-30T06:35:11;12.60;74.50
63445;DHT22;49573;47.682;9.170;2023-04-30T06:37:57;12.60;74.40
63445;DHT22;49573;47.682;9.170;2023-04-30T06:40:43;12.70;74.40
63445;DHT22;49573;47.682;9.170;2023-04-30T06:43:29;12.80;74.20
63445;DHT22;49573;47.682;9.170;2023-04-30T06:46:16;12.80;73.70
63445;DHT22;49573;47.682;9.170;2023-04-30T06:49:02;12.80;73.60
63445;DHT22;49573;47.682;9.170;2023-04-30T06:51:48;13.00;73.20
63445;DHT22;49573;47.682;9.170;2023-04-30T06:54:34;13.10;73.00
63445;DHT22;49573;47.682;9.170;2023-04-30T06:57:21;13.20;72.90
63445;DHT22;49573;47.682;9.170;2023-04-30T07:00:07;13.30;72.60
63445;DHT22;49573;47.682;9.170;2023-04-30T07:02:55;13.30;72.20
63445;DHT22;49573;47.682;9.170;2023-04-30T07:05:42;13.30;72.70
63445;DHT22;49573;47.682;9.170;2023-04-30T07:08:28;13.20;72.40
63445;DHT22;49573;47.682;9.170;2023-04-30T07:11:14;13.30;72.40
63445;DHT22;49573;47.682;9.170;2023-04-30T07:14:00;13.30;72.10
63445;DHT22;49573;47.682;9.170;2023-04-30T07:16:49;13.40;72.00
63445;DHT22;49573;47.682;9.170;2023-04-30T07:19:36;13.40;71.90
63445;DHT22;49573;47.682;9.170;2023-04-30T07:22:22;13.50;71.80
63445;DHT22;49573;47.682;9.170;2023-04-30T07:25:08;13.60;71.60
63445;DHT22;49573;47.682;9.170;2023-04-30T07:27:54;13.70;71.70
63445;DHT22;49573;47.682;9.170;2023-04-30T07:30:41;13.70;71.20
63445;DHT22;49573;47.682;9.170;2023-04-30T07:33:27;13.80;71.30
63445;DHT22;49573;47.682;9.170;2023-04-30T07:36:14;13.80;71.60
63445;DHT22;49573;47.682;9.170;2023-04-30T07:39:01;14.00;70.50
63445;DHT22;49573;47.682;9.170;2023-04-30T07:41:47;14.20;70.20
63445;DHT22;49573;47.682;9.170;2023-04-30T07:44:33;14.40;70.10
63445;DHT22;49573;47.682;9.170;2023-04-30T07:47:19;14.60;68.90
63445;DHT22;49573;47.682;9.170;2023-04-30T07:50:06;14.70;68.60
63445;DHT22;49573;47.682;9.170;2023-04-30T07:52:54;14.70;68.30
63445;DHT22;49573;47.682;9.170;2023-04-30T07:55:40;14.90;68.10
63445;DHT22;49573;47.682;9.170;2023-04-30T07:58:26;15.10;67.50
63445;DHT22;49573;47.682;9.170;2023-04-30T08:01:12;15.10;67.40
63445;DHT22;49573;47.682;9.170;2023-04-30T08:03:58;15.20;66.30
63445;DHT22;49573;47.682;9.170;2023-04-30T08:06:44;15.30;66.90
63445;DHT22;49573;47.682;9.170;2023-04-30T08:09:31;15.30;67.30
63445;DHT22;49573;47.682;9.170;2023-04-30T08:12:18;15.50;66.10
63445;DHT22;49573;47.682;9.170;2023-04-30T08:15:05;15.50;66.00
63445;DHT22;49573;47.682;9.170;2023-04-30T08:17:52;15.80;66.20
63445;DHT22;49573;47.682;9.170;2023-04-30T08:20:38;15.90;65.70
63445;DHT22;49573;47.682;9.170;2023-04-30T08:23:24;16.00;65.50
63445;DHT22;49573;47.682;9.170;2023-04-30T08:26:12;16.10;64.50
63445;DHT22;49573;47.682;9.170;2023-04-30T08:28:58;16.30;64.30
63445;DHT22;49573;47.682;9.170;2023-04-30T08:31:44;16.30;64.70
63445;DHT22;49573;47.682;9.170;2023-04-30T08:34:31;16.30;63.10
63445;DHT22;49573;47.682;9.170;2023-04-30T08:37:17;16.50;64.20
63445;DHT22;49573;47.682;9.170;2023-04-30T08:40:04;16.80;63.70
63445;DHT22;49573;47.682;9.170;2023-04-30T08:43:03;16.90;61.90
63445;DHT22;49573;47.682;9.170;2023-04-30T08:45:50;16.90;61.60
63445;DHT22;49573;47.682;9.170;2023-04-30T08:48:36;17.00;61.30
63445;DHT22;49573;47.682;9.170;2023-04-30T08:51:23;17.20;61.30
63445;DHT22;49573;47.682;9.170;2023-04-30T08:54:12;17.20;60.50
63445;DHT22;49573;47.682;9.170;2023-04-30T08:56:58;17.30;60.20
63445;DHT22;49573;47.682;9.170;2023-04-30T08:59:45;17.30;60.40
63445;DHT22;49573;47.682;9.170;2023-04-30T09:02:32;17.50;60.00
63445;DHT22;49573;47.682;9.170;2023-04-30T09:05:18;17.50;59.30
63445;DHT22;49573;47.682;9.170;2023-04-30T09:08:05;17.60;59.10
63445;DHT22;49573;47.682;9.170;2023-04-30T09:10:52;17.60;58.80
63445;DHT22;49573;47.682;9.170;2023-04-30T09:13:40;17.80;59.30
63445;DHT22;49573;47.682;9.170;2023-04-30T09:16:28;17.90;58.50
63445;DHT22;49573;47.682;9.170;2023-04-30T09:19:22;18.20;57.80
63445;DHT22;49573;47.682;9.170;2023-04-30T09:22:18;18.30;56.70
63445;DHT22;49573;47.682;9.170;2023-04-30T09:25:07;18.50;58.10
63445;DHT22;49573;47.682;9.170;2023-04-30T09:28:06;18.60;57.50
63445;DHT22;49573;47.682;9.170;2023-04-30T09:30:55;18.70;57.90
63445;DHT22;49573;47.682;9.170;2023-04-30T09:33:45;18.80;55.80
63445;DHT22;49573;47.682;9.170;2023-04-30T09:36:32;18.70;54.20
63445;DHT22;49573;47.682;9.170;2023-04-30T09:39:19;18.60;55.20
63445;DHT22;49573;47.682;9.170;2023-04-30T09:42:09;18.80;56.00
63445;DHT22;49573;47.682;9.170;2023-04-30T09:44:55;18.80;55.10
63445;DHT22;49573;47.682;9.170;2023-04-30T09:47:42;18.80;54.10
63445;DHT22;49573;47.682;9.170;2023-04-30T09:50:36;19.10;54.80
63445;DHT22;49573;47.682;9.170;2023-04-30T09:53:23;19.30;54.30
63445;DHT22;49573;47.682;9.170;2023-04-30T09:56:11;19.30;53.80
63445;DHT22;49573;47.682;9.170;2023-04-30T09:58:59;19.30;54.60
63445;DHT22;49573;47.682;9.170;2023-04-30T10:01:47;19.40;53.50
63445;DHT22;49573;47.682;9.170;2023-04-30T10:04:35;19.50;53.20
63445;DHT22;49573;47.682;9.170;2023-04-30T10:07:24;19.60;53.90
63445;DHT22;49573;47.682;9.170;2023-04-30T10:10:12;19.50;52.90
63445;DHT22;49573;47.682;9.170;2023-04-30T10:13:02;19.70;51.80
63445;DHT22;49573;47.682;9.170;2023-04-30T10:15:50;19.60;53.10
63445;DHT22;49573;47.682;9.170;2023-04-30T10:18:41;19.60;52.60
63445;DHT22;49573;47.682;9.170;2023-04-30T10:21:29;19.50;52.00
63445;DHT22;49573;47.682;9.170;2023-04-30T10:24:19;19.40;53.60
63445;DHT22;49573;47.682;9.170;2023-04-30T10:27:06;19.50;52.40
63445;DHT22;49573;47.682;9.170;2023-04-30T10:29:54;19.50;52.40
63445;DHT22;49573;47.682;9.170;2023-04-30T10:32:46;19.70;52.90
63445;DHT22;49573;47.682;9.170;2023-04-30T10:35:39;19.70;53.00
63445;DHT22;49573;47.682;9.170;2023-04-30T10:38:30;19.40;52.70
63445;DHT22;49573;47.682;9.170;2023-04-30T10:41:19;19.50;53.00
63445;DHT22;49573;47.682;9.170;2023-04-30T10:44:06;19.70;51.70
63445;DHT22;49573;47.682;9.170;2023-04-30T10:46:58;19.80;52.60
63445;DHT22;49573;47.682;9.170;2023-04-30T10:49:45;19.90;53.00
63445;DHT22;49573;47.682;9.170;2023-04-30T10:52:33;20.00;52.20
63445;DHT22;49573;47.682;9.170;2023-04-30T10:55:20;20.30;50.60
63445;DHT22;49573;47.682;9.170;2023-04-30T10:58:22;20.40;51.30
63445;DHT22;49573;47.682;9.170;2023-04-30T11:01:11;20.30;50.90
63445;DHT22;49573;47.682;9.170;2023-04-30T11:04:05;20.10;51.70
63445;DHT22;49573;47.682;9.170;2023-04-30T11:07:10;20.10;50.90
63445;DHT22;49573;47.682;9.170;2023-04-30T11:09:56;20.00;50.30
63445;DHT22;49573;47.682;9.170;2023-04-30T11:12:47;20.10;51.10
63445;DHT22;49573;47.682;9.170;2023-04-30T11:15:40;20.30;51.40
63445;DHT22;49573;47.682;9.170;2023-04-30T11:18:42;20.20;50.90
63445;DHT22;49573;47.682;9.170;2023-04-30T11:21:30;20.30;50.70
63445;DHT22;49573;47.682;9.170;2023-04-30T11:24:18;20.50;50.70
63445;DHT22;49573;47.682;9.170;2023-04-30T11:27:05;20.60;50.20
63445;DHT22;49573;47.682;9.170;2023-04-30T11:29:52;20.50;49.90
63445;DHT22;49573;47.682;9.170;2023-04-30T11:32:42;20.70;50.40
63445;DHT22;49573;47.682;9.170;2023-04-30T11:35:31;20.60;49.80
63445;DHT22;49573;47.682;9.170;2023-04-30T11:38:20;20.60;50.30
63445;DHT22;49573;47.682;9.170;2023-04-30T11:41:11;20.40;50.40
63445;DHT22;49573;47.682;9.170;2023-04-30T11:43:57;20.40;49.20
63445;DHT22;49573;47.682;9.170;2023-04-30T11:46:43;20.40;50.20
63445;DHT22;49573;47.682;9.170;2023-04-30T11:49:31;20.50;49.80
63445;DHT22;49573;47.682;9.170;2023-04-30T11:52:20;20.80;50.60
63445;DHT22;49573;47.682;9.170;2023-04-30T11:55:11;20.80;49.60
63445;DHT22;49573;47.682;9.170;2023-04-30T11:57:58;21.00;49.10
63445;DHT22;49573;47.682;9.170;2023-04-30T12:00:50;21.30;48.60
63445;DHT22;49573;47.682;9.170;2023-04-30T12:03:43;21.40;48.60
63445;DHT22;49573;47.682;9.170;2023-04-30T12:06:32;21.70;48.30
63445;DHT22;49573;47.682;9.170;2023-04-30T12:09:18;22.20;47.30
63445;DHT22;49573;47.682;9.170;2023-04-30T12:20:26;24.10;43.90
63445;DHT22;49573;47.682;9.170;2023-04-30T12:31:36;23.40;43.50
63445;DHT22;49573;47.682;9.170;2023-04-30T12:34:25;23.90;43.70
63445;DHT22;49573;47.682;9.170;2023-04-30T12:37:14;24.10;43.20
63445;DHT22;49573;47.682;9.170;2023-04-30T12:40:01;23.50;44.20
63445;DHT22;49573;47.682;9.170;2023-04-30T12:45:44;24.10;43.00
63445;DHT22;49573;47.682;9.170;2023-04-30T12:48:42;24.60;42.20
63445;DHT22;49573;47.682;9.170;2023-04-30T12:54:19;23.80;42.60
63445;DHT22;49573;47.682;9.170;2023-04-30T12:57:11;24.30;41.70
63445;DHT22;49573;47.682;9.170;2023-04-30T12:59:58;24.40;42.00
63445;DHT22;49573;47.682;9.170;2023-04-30T13:02:45;24.50;40.40
63445;DHT22;49573;47.682;9.170;2023-04-30T13:05:31;24.30;41.70
63445;DHT22;49573;47.682;9.170;2023-04-30T13:08:17;24.20;42.40
63445;DHT22;49573;47.682;9.170;2023-04-30T13:11:04;23.50;42.80
63445;DHT22;49573;47.682;9.170;2023-04-30T13:16:40;23.40;42.30
63445;DHT22;49573;47.682;9.170;2023-04-30T13:19:26;23.10;42.90
63445;DHT22;49573;47.682;9.170;2023-04-30T13:22:12;22.80;44.20
63445;DHT22;49573;47.682;9.170;2023-04-30T13:24:58;22.30;44.70
63445;DHT22;49573;47.682;9.170;2023-04-30T13:27:44;22.20;45.60
63445;DHT22;49573;47.682;9.170;2023-04-30T13:30:32;22.10;45.50
63445;DHT22;49573;47.682;9.170;2023-04-30T13:33:19;22.10;44.90
63445;DHT22;49573;47.682;9.170;2023-04-30T13:36:06;22.10;45.20
63445;DHT22;49573;47.682;9.170;2023-04-30T13:38:52;21.80;45.60
63445;DHT22;49573;47.682;9.170;2023-04-30T13:41:38;21.70;45.60
63445;DHT22;49573;47.682;9.170;2023-04-30T13:44:24;21.70;46.40
63445;DHT22;49573;47.682;9.170;2023-04-30T13:47:11;21.80;45.30
63445;DHT22;49573;47.682;9.170;2023-04-30T13:49:57;21.70;46.30
63445;DHT22;49573;47.682;9.170;2023-04-30T13:52:43;21.50;45.80
63445;DHT22;49573;47.682;9.170;2023-04-30T13:55:29;21.40;46.10
63445;DHT22;49573;47.682;9.170;2023-04-30T13:58:16;21.30;46.20
63445;DHT22;49573;47.682;9.170;2023-04-30T14:01:02;21.10;46.40
63445;DHT22;49573;47.682;9.170;2023-04-30T14:03:49;21.00;46.20
63445;DHT22;49573;47.682;9.170;2023-04-30T14:06:36;20.90;47.30
63445;DHT22;49573;47.682;9.170;2023-04-30T14:09:23;20.90;47.20
63445;DHT22;49573;47.682;9.170;2023-04-30T14:12:09;20.80;47.10
63445;DHT22;49573;47.682;9.170;2023-04-30T14:14:55;20.90;47.90
63445;DHT22;49573;47.682;9.170;2023-04-30T14:17:42;20.80;47.70
63445;DHT22;49573;47.682;9.170;2023-04-30T14:20:29;20.90;48.10
63445;DHT22;49573;47.682;9.170;2023-04-30T14:23:15;20.80;47.50
63445;DHT22;49573;47.682;9.170;2023-04-30T14:26:01;20.70;48.10
63445;DHT22;49573;47.682;9.170;2023-04-30T14:28:47;20.50;49.00
63445;DHT22;49573;47.682;9.170;2023-04-30T14:31:33;20.50;49.10
63445;DHT22;49573;47.682;9.170;2023-04-30T14:34:19;20.50;48.40
63445;DHT22;49573;47.682;9.170;2023-04-30T14:37:07;20.30;48.30
63445;DHT22;49573;47.682;9.170;2023-04-30T14:39:53;20.20;48.10
63445;DHT22;49573;47.682;9.170;2023-04-30T14:42:39;20.20;49.20
63445;DHT22;49573;47.682;9.170;2023-04-30T14:45:25;20.10;50.10
63445;DHT22;49573;47.682;9.170;2023-04-30T14:48:13;20.00;49.40
63445;DHT22;49573;47.682;9.170;2023-04-30T14:50:58;20.00;49.90
63445;DHT22;49573;47.682;9.170;2023-04-30T14:53:47;19.90;49.60
63445;DHT22;49573;47.682;9.170;2023-04-30T14:56:33;19.80;49.70
63445;DHT22;49573;47.682;9.170;2023-04-30T14:59:19;19.60;50.30
63445;DHT22;49573;47.682;9.170;2023-04-30T15:02:06;19.60;50.40
63445;DHT22;49573;47.682;9.170;2023-04-30T15:04:52;19.50;50.40
63445;DHT22;49573;47.682;9.170;2023-04-30T15:07:38;19.40;50.60
63445;DHT22;49573;47.682;9.170;2023-04-30T15:10:25;19.30;51.50
63445;DHT22;49573;47.682;9.170;2023-04-30T15:13:12;19.30;51.00
63445;DHT22;49573;47.682;9.170;2023-04-30T15:15:59;19.20;50.60
63445;DHT22;49573;47.682;9.170;2023-04-30T15:18:45;19.10;51.60
63445;DHT22;49573;47.682;9.170;2023-04-30T15:21:31;19.00;52.10
63445;DHT22;49573;47.682;9.170;2023-04-30T15:24:18;18.90;51.90
63445;DHT22;49573;47.682;9.170;2023-04-30T15:27:05;18.80;51.60
63445;DHT22;49573;47.682;9.170;2023-04-30T15:29:51;18.80;52.10
63445;DHT22;49573;47.682;9.170;2023-04-30T15:32:38;18.80;52.70
63445;DHT22;49573;47.682;9.170;2023-04-30T15:35:25;18.70;51.70
63445;DHT22;49573;47.682;9.170;2023-04-30T15:38:12;18.70;52.30
63445;DHT22;49573;47.682;9.170;2023-04-30T15:40:58;18.60;52.50
63445;DHT22;49573;47.682;9.170;2023-04-30T15:43:45;18.40;52.10
63445;DHT22;49573;47.682;9.170;2023-04-30T15:46:31;18.40;52.60
63445;DHT22;49573;47.682;9.170;2023-04-30T15:49:18;18.40;52.40
63445;DHT22;49573;47.682;9.170;2023-04-30T15:52:04;18.30;52.80
63445;DHT22;49573;47.682;9.170;2023-04-30T15:54:50;18.20;53.00
63445;DHT22;49573;47.682;9.170;2023-04-30T15:57:36;18.20;53.20
63445;DHT22;49573;47.682;9.170;2023-04-30T16:00:24;18.20;53.50
63445;DHT22;49573;47.682;9.170;2023-04-30T16:03:11;18.20;53.20
63445;DHT22;49573;47.682;9.170;2023-04-30T16:05:58;18.20;53.40
63445;DHT22;49573;47.682;9.170;2023-04-30T16:08:45;18.00;53.30
63445;DHT22;49573;47.682;9.170;2023-04-30T16:11:32;18.00;53.00
63445;DHT22;49573;47.682;9.170;2023-04-30T16:14:18;17.90;54.00
63445;DHT22;49573;47.682;9.170;2023-04-30T16:17:06;17.90;53.60
63445;DHT22;49573;47.682;9.170;2023-04-30T16:19:52;17.90;54.20
63445;DHT22;49573;47.682;9.170;2023-04-30T16:22:38;17.90;54.10
63445;DHT22;49573;47.682;9.170;2023-04-30T16:25:24;17.90;54.30
63445;DHT22;49573;47.682;9.170;2023-04-30T16:28:11;17.90;54.40
63445;DHT22;49573;47.682;9.170;2023-04-30T16:30:57;17.80;54.20
63445;DHT22;49573;47.682;9.170;2023-04-30T16:33:44;17.70;54.20
63445;DHT22;49573;47.682;9.170;2023-04-30T16:36:31;17.70;54.00
63445;DHT22;49573;47.682;9.170;2023-04-30T16:39:17;17.60;54.40
63445;DHT22;49573;47.682;9.170;2023-04-30T16:42:03;17.50;54.40
63445;DHT22;49573;47.682;9.170;2023-04-30T16:44:50;17.50;54.30
63445;DHT22;49573;47.682;9.170;2023-04-30T16:47:36;17.40;54.70
63445;DHT22;49573;47.682;9.170;2023-04-30T16:50:24;17.40;55.00
63445;DHT22;49573;47.682;9.170;2023-04-30T16:53:11;17.30;55.50
63445;DHT22;49573;47.682;9.170;2023-04-30T16:55:57;17.30;55.20
63445;DHT22;49573;47.682;9.170;2023-04-30T16:58:43;17.30;55.70
63445;DHT22;49573;47.682;9.170;2023-04-30T17:01:29;17.20;54.90
63445;DHT22;49573;47.682;9.170;2023-04-30T17:04:16;17.20;55.30
63445;DHT22;49573;47.682;9.170;2023-04-30T17:07:04;17.20;55.10
63445;DHT22;49573;47.682;9.170;2023-04-30T17:09:51;17.10;55.60
63445;DHT22;49573;47.682;9.170;2023-04-30T17:12:37;17.10;56.70
63445;DHT22;49573;47.682;9.170;2023-04-30T17:15:23;17.00;55.60
63445;DHT22;49573;47.682;9.170;2023-04-30T17:18:10;17.00;55.60
63445;DHT22;49573;47.682;9.170;2023-04-30T17:20:56;17.00;56.10
63445;DHT22;49573;47.682;9.170;2023-04-30T17:23:43;16.90;56.60
63445;DHT22;49573;47.682;9.170;2023-04-30T17:26:29;16.90;56.30
63445;DHT22;49573;47.682;9.170;2023-04-30T17:29:16;16.80;57.00
63445;DHT22;49573;47.682;9.170;2023-04-30T17:32:04;16.80;57.20
63445;DHT22;49573;47.682;9.170;2023-04-30T17:34:50;16.80;57.10
63445;DHT22;49573;47.682;9.170;2023-04-30T17:37:36;16.80;57.10
63445;DHT22;49573;47.682;9.170;2023-04-30T17:40:24;16.80;56.80
63445;DHT22;49573;47.682;9.170;2023-04-30T17:43:10;16.80;57.70
63445;DHT22;49573;47.682;9.170;2023-04-30T17:45:56;16.80;57.40
63445;DHT22;49573;47.682;9.170;2023-04-30T17:48:42;16.70;57.60
63445;DHT22;49573;47.682;9.170;2023-04-30T17:51:29;16.70;58.10
63445;DHT22;49573;47.682;9.170;2023-04-30T17:54:16;16.70;58.30
63445;DHT22;49573;47.682;9.170;2023-04-30T17:57:03;16.70;58.20
63445;DHT22;49573;47.682;9.170;2023-04-30T17:59:49;16.60;57.90
63445;DHT22;49573;47.682;9.170;2023-04-30T18:02:36;16.60;58.60